Time,TemperatureF,DewpointF,PressureIn,WindDirection,WindDirectionDegrees,WindSpeedMPH,WindSpeedGustMPH,Humidity,HourlyPrecipIn,Conditions,Clouds,dailyrainin,SolarRadiationWatts/m^2,SoftwareType,DateUTC
2013-04-06 00:00:00,49.3,26.0,30.10,North,359,1.0,3.0,40,0.00,,,0.00,0,Wunderground v.1.15,2013-04-06 04:00:00,
2013-04-06 00:05:00,48.9,26.2,30.10,North,8,0.0,3.0,41,0.00,,,0.00,0,Wunderground v.1.15,2013-04-06 04:05:00,
2013-04-06 00:07:00,48.8,26.1,30.10,NE,40,1.0,3.0,41,0.00,,,0.00,0,Wunderground v.1.15,2013-04-06 04:07:00,
2013-04-06 00:12:00,48.8,25.5,30.10,NE,50,0.0,2.0,40,0.00,,,0.00,0,Wunderground v.1.15,2013-04-06 04:12:00,
2013-04-06 00:13:00,48.7,26.0,30.10,NE,50,0.0,2.0,41,0.00,,,0.00,0,Wunderground v.1.15,2013-04-06 04:13:00,
2013-04-06 00:19:00,48.5,25.8,30.10,ENE,60,0.0,2.0,41,0.00,,,0.00,0,Wunderground v.1.15,2013-04-06 04:19:00,
2013-04-06 00:24:00,48.4,25.8,30.11,NE,46,0.0,2.0,41,0.00,,,0.00,0,Wunderground v.1.15,2013-04-06 04:24:00,
2013-04-06 00:29:00,48.3,25.7,30.11,NNE,17,3.0,3.0,41,0.00,,,0.00,0,Wunderground v.1.15,2013-04-06 04:29:00,
2013-04-06 00:35:00,48.3,25.1,30.11,NNE,13,2.0,3.0,40,0.00,,,0.00,0,Wunderground v.1.15,2013-04-06 04:35:00,
2013-04-06 00:41:00,48.2,26.2,30.11,NE,42,3.0,3.0,42,0.00,,,0.00,0,Wunderground v.1.15,2013-04-06 04:41:00,
2013-04-06 00:47:00,48.1,26.1,30.11,NNE,29,3.0,3.0,42,0.00,,,0.00,0,Wunderground v.1.15,2013-04-06 04:47:00,
2013-04-06 00:52:00,48.1,27.2,30.12,NNE,28,3.0,3.0,44,0.00,,,0.00,0,Wunderground v.1.15,2013-04-06 04:52:00,
2013-04-06 00:57:00,47.9,26.5,30.12,NNE,22,2.0,4.0,43,0.00,,,0.00,0,Wunderground v.1.15,2013-04-06 04:57:00,
2013-04-06 01:04:00,47.6,26.2,30.12,NE,55,2.0,2.0,43,0.00,,,0.00,0,Wunderground v.1.15,2013-04-06 05:04:00,
2013-04-06 01:09:00,47.4,23.7,30.12,North,4,3.0,3.0,39,0.00,,,0.00,0,Wunderground v.1.15,2013-04-06 05:09:00,
2013-04-06 01:14:00,47.2,24.7,30.13,ENE,70,2.0,3.0,41,0.00,,,0.00,0,Wunderground v.1.15,2013-04-06 05:14:00,
2013-04-06 01:20:00,46.9,24.4,30.12,East,80,2.0,2.0,41,0.00,,,0.00,0,Wunderground v.1.15,2013-04-06 05:20:00,
2013-04-06 01:25:00,46.6,24.1,30.12,ENE,75,1.0,3.0,41,0.00,,,0.00,0,Wunderground v.1.15,2013-04-06 05:25:00,
2013-04-06 01:31:00,46.3,24.4,30.12,ENE,70,3.0,3.0,42,0.00,,,0.00,0,Wunderground v.1.15,2013-04-06 05:31:00,
2013-04-06 01:36:00,46.1,25.4,30.12,East,82,2.0,3.0,44,0.00,,,0.00,0,Wunderground v.1.15,2013-04-06 05:36:00,
2013-04-06 01:42:00,45.7,25.5,30.12,East,81,1.0,1.0,45,0.00,,,0.00,0,Wunderground v.1.15,2013-04-06 05:42:00,
2013-04-06 01:48:00,45.4,25.8,30.12,ENE,68,2.0,2.0,46,0.00,,,0.00,0,Wunderground v.1.15,2013-04-06 05:48:00,
2013-04-06 01:53:00,45.2,26.1,30.13,ENE,69,2.0,2.0,47,0.00,,,0.00,0,Wunderground v.1.15,2013-04-06 05:53:00,
2013-04-06 01:58:00,44.8,26.3,30.13,ENE,72,1.0,2.0,48,0.00,,,0.00,0,Wunderground v.1.15,2013-04-06 05:58:00,
2013-04-06 02:04:00,44.5,26.0,30.13,ENE,72,1.0,2.0,48,0.00,,,0.00,0,Wunderground v.1.15,2013-04-06 06:04:00,
2013-04-06 02:09:00,44.3,25.8,30.13,ENE,72,0.0,2.0,48,0.00,,,0.00,0,Wunderground v.1.15,2013-04-06 06:09:00,
2013-04-06 02:14:00,43.9,26.0,30.13,ENE,72,0.0,1.0,49,0.00,,,0.00,0,Wunderground v.1.15,2013-04-06 06:14:00,
2013-04-06 02:19:00,43.6,25.2,30.14,ENE,72,0.0,0.0,48,0.00,,,0.00,0,Wunderground v.1.15,2013-04-06 06:19:00,
2013-04-06 02:24:00,43.4,25.5,30.14,ENE,72,1.0,1.0,49,0.00,,,0.00,0,Wunderground v.1.15,2013-04-06 06:24:00,
2013-04-06 02:29:00,43.2,26.3,30.13,ENE,72,1.0,2.0,51,0.00,,,0.00,0,Wunderground v.1.15,2013-04-06 06:29:00,
2013-04-06 02:35:00,43.0,25.6,30.13,ENE,72,1.0,2.0,50,0.00,,,0.00,0,Wunderground v.1.15,2013-04-06 06:35:00,
2013-04-06 02:42:00,42.8,25.4,30.13,ENE,72,0.0,2.0,50,0.00,,,0.00,0,Wunderground v.1.15,2013-04-06 06:42:00,
2013-04-06 02:47:00,42.7,24.8,30.13,ENE,72,0.0,2.0,49,0.00,,,0.00,0,Wunderground v.1.15,2013-04-06 06:47:00,
2013-04-06 02:52:00,42.5,25.1,30.13,ENE,72,0.0,2.0,50,0.00,,,0.00,0,Wunderground v.1.15,2013-04-06 06:52:00,
2013-04-06 02:57:00,42.4,24.6,30.14,ENE,72,0.0,2.0,49,0.00,,,0.00,0,Wunderground v.1.15,2013-04-06 06:57:00,
2013-04-06 03:02:00,42.2,24.9,30.14,ENE,72,0.0,1.0,50,0.00,,,0.00,0,Wunderground v.1.15,2013-04-06 07:02:00,
2013-04-06 03:07:00,42.1,24.8,30.13,ENE,72,1.0,1.0,50,0.00,,,0.00,0,Wunderground v.1.15,2013-04-06 07:07:00,
2013-04-06 03:12:00,41.9,24.1,30.13,ENE,72,1.0,2.0,49,0.00,,,0.00,0,Wunderground v.1.15,2013-04-06 07:12:00,
2013-04-06 03:17:00,41.8,24.0,30.14,ENE,72,0.0,2.0,49,0.00,,,0.00,0,Wunderground v.1.15,2013-04-06 07:17:00,
2013-04-06 03:22:00,41.6,23.8,30.13,ENE,72,0.0,3.0,49,0.00,,,0.00,0,Wunderground v.1.15,2013-04-06 07:22:00,
2013-04-06 03:27:00,41.7,23.4,30.14,ENE,72,0.0,3.0,48,0.00,,,0.00,0,Wunderground v.1.15,2013-04-06 07:27:00,
2013-04-06 03:32:00,41.5,23.2,30.14,ENE,72,0.0,2.0,48,0.00,,,0.00,0,Wunderground v.1.15,2013-04-06 07:32:00,
2013-04-06 03:37:00,41.3,24.0,30.14,ENE,72,0.0,2.0,50,0.00,,,0.00,0,Wunderground v.1.15,2013-04-06 07:37:00,
2013-04-06 03:43:00,40.8,25.4,30.14,ENE,72,0.0,0.0,54,0.00,,,0.00,0,Wunderground v.1.15,2013-04-06 07:43:00,
2013-04-06 03:48:00,40.2,25.3,30.14,ENE,72,0.0,0.0,55,0.00,,,0.00,0,Wunderground v.1.15,2013-04-06 07:48:00,
2013-04-06 03:53:00,39.8,25.4,30.15,ENE,72,0.0,0.0,56,0.00,,,0.00,0,Wunderground v.1.15,2013-04-06 07:53:00,
2013-04-06 03:58:00,39.4,25.4,30.15,ENE,72,0.0,0.0,57,0.00,,,0.00,0,Wunderground v.1.15,2013-04-06 07:58:00,
2013-04-06 04:04:00,39.0,24.6,30.14,ENE,72,0.0,0.0,56,0.00,,,0.00,0,Wunderground v.1.15,2013-04-06 08:04:00,
2013-04-06 04:10:00,38.8,25.3,30.14,ENE,72,0.0,0.0,58,0.00,,,0.00,0,Wunderground v.1.15,2013-04-06 08:10:00,
2013-04-06 04:14:00,38.5,25.4,30.14,ENE,72,0.0,0.0,59,0.00,,,0.00,0,Wunderground v.1.15,2013-04-06 08:14:00,
2013-04-06 04:20:00,38.2,25.1,30.14,ENE,72,0.0,0.0,59,0.00,,,0.00,0,Wunderground v.1.15,2013-04-06 08:20:00,
2013-04-06 04:26:00,38.0,24.9,30.14,ENE,72,0.0,0.0,59,0.00,,,0.00,0,Wunderground v.1.15,2013-04-06 08:26:00,
2013-04-06 04:32:00,37.8,25.1,30.14,ENE,72,0.0,0.0,60,0.00,,,0.00,0,Wunderground v.1.15,2013-04-06 08:32:00,
2013-04-06 04:37:00,37.6,25.4,30.14,ENE,72,0.0,0.0,61,0.00,,,0.00,0,Wunderground v.1.15,2013-04-06 08:37:00,
2013-04-06 04:54:00,37.3,24.7,30.14,ENE,72,0.0,0.0,60,0.00,,,0.00,0,Wunderground v.1.15,2013-04-06 08:54:00,
2013-04-06 04:59:00,37.1,25.7,30.15,ENE,72,0.0,0.0,63,0.00,,,0.00,0,Wunderground v.1.15,2013-04-06 08:59:00,
2013-04-06 05:07:00,36.7,25.3,30.15,ENE,72,0.0,0.0,63,0.00,,,0.00,0,Wunderground v.1.15,2013-04-06 09:07:00,
2013-04-06 05:12:00,36.5,25.5,30.15,ENE,73,0.0,0.0,64,0.00,,,0.00,0,Wunderground v.1.15,2013-04-06 09:12:00,
2013-04-06 05:18:00,36.3,24.9,30.15,ENE,72,0.0,0.0,63,0.00,,,0.00,0,Wunderground v.1.15,2013-04-06 09:18:00,
2013-04-06 05:23:00,36.2,25.2,30.16,ENE,72,0.0,0.0,64,0.00,,,0.00,0,Wunderground v.1.15,2013-04-06 09:23:00,
2013-04-06 05:28:00,36.1,25.1,30.15,ENE,72,0.0,0.0,64,0.00,,,0.00,0,Wunderground v.1.15,2013-04-06 09:28:00,
2013-04-06 05:34:00,36.0,25.0,30.15,ENE,72,0.0,0.0,64,0.00,,,0.00,0,Wunderground v.1.15,2013-04-06 09:34:00,
2013-04-06 05:39:00,35.8,24.8,30.15,ENE,72,0.0,0.0,64,0.00,,,0.00,0,Wunderground v.1.15,2013-04-06 09:39:00,
2013-04-06 05:44:00,35.8,25.2,30.16,ENE,72,0.0,0.0,65,0.00,,,0.00,0,Wunderground v.1.15,2013-04-06 09:44:00,
2013-04-06 12:51:00,60.6,25.5,30.16,North,0,2.0,2.0,26,0.00,,,0.00,0,Wunderground v.1.15,2013-04-06 16:51:00,
2013-04-06 12:56:00,61.0,24.9,30.16,NNE,28,1.0,4.0,25,0.00,,,0.00,0,Wunderground v.1.15,2013-04-06 16:56:00,
2013-04-06 13:09:00,61.4,24.2,30.15,NNW,340,2.0,2.0,24,0.00,,,0.00,0,Wunderground v.1.15,2013-04-06 17:09:00,
2013-04-06 13:17:00,62.0,25.7,30.15,NNW,336,2.0,4.0,25,0.00,,,0.00,0,Wunderground v.1.15,2013-04-06 17:17:00,
2013-04-06 13:22:00,62.2,24.9,30.14,North,11,3.0,4.0,24,0.00,,,0.00,0,Wunderground v.1.15,2013-04-06 17:22:00,
2013-04-06 13:27:00,62.1,24.8,30.14,NNE,30,2.0,5.0,24,0.00,,,0.00,0,Wunderground v.1.15,2013-04-06 17:27:00,
2013-04-06 13:33:00,62.0,24.8,30.14,NE,56,2.0,5.0,24,0.00,,,0.00,0,Wunderground v.1.15,2013-04-06 17:33:00,
2013-04-06 13:38:00,62.3,26.0,30.14,NNE,20,3.0,3.0,25,0.00,,,0.00,0,Wunderground v.1.15,2013-04-06 17:38:00,
2013-04-06 13:43:00,62.5,25.2,30.13,NNE,18,3.0,4.0,24,0.00,,,0.00,0,Wunderground v.1.15,2013-04-06 17:43:00,
2013-04-06 13:51:00,63.0,27.5,30.13,NE,50,2.0,3.0,26,0.00,,,0.00,0,Wunderground v.1.15,2013-04-06 17:51:00,
2013-04-06 13:56:00,63.6,26.1,30.12,NNW,346,2.0,3.0,24,0.00,,,0.00,0,Wunderground v.1.15,2013-04-06 17:56:00,
2013-04-06 14:10:00,64.2,26.6,30.11,NE,41,4.0,4.0,24,0.00,,,0.00,0,Wunderground v.1.15,2013-04-06 18:10:00,
2013-04-06 14:15:00,64.6,27.0,30.11,NNE,24,0.0,4.0,24,0.00,,,0.00,0,Wunderground v.1.15,2013-04-06 18:15:00,
2013-04-06 14:21:00,65.0,26.3,30.11,WNW,284,1.0,1.0,23,0.00,,,0.00,0,Wunderground v.1.15,2013-04-06 18:21:00,
2013-04-06 14:26:00,65.4,26.6,30.10,ENE,61,0.0,4.0,23,0.00,,,0.00,0,Wunderground v.1.15,2013-04-06 18:26:00,
2013-04-06 14:31:00,66.0,28.1,30.10,NE,53,0.0,1.0,24,0.00,,,0.00,0,Wunderground v.1.15,2013-04-06 18:31:00,
2013-04-06 14:36:00,66.8,31.7,30.10,NE,54,2.0,2.0,27,0.00,,,0.00,0,Wunderground v.1.15,2013-04-06 18:36:00,
2013-04-06 14:42:00,66.5,30.5,30.09,East,81,3.0,3.0,26,0.00,,,0.00,0,Wunderground v.1.15,2013-04-06 18:42:00,
2013-04-06 14:48:00,67.5,32.3,30.09,SSE,149,1.0,6.0,27,0.00,,,0.00,0,Wunderground v.1.15,2013-04-06 18:48:00,
2013-04-06 14:53:00,68.0,29.8,30.09,WNW,287,3.0,4.0,24,0.00,,,0.00,0,Wunderground v.1.15,2013-04-06 18:53:00,
2013-04-06 14:58:00,68.4,33.1,30.08,SW,233,2.0,2.0,27,0.00,,,0.00,0,Wunderground v.1.15,2013-04-06 18:58:00,
2013-04-06 15:04:00,68.7,30.4,30.07,NE,36,4.0,4.0,24,0.00,,,0.00,0,Wunderground v.1.15,2013-04-06 19:04:00,
2013-04-06 15:09:00,68.6,30.3,30.07,East,80,1.0,5.0,24,0.00,,,0.00,0,Wunderground v.1.15,2013-04-06 19:09:00,
2013-04-06 15:14:00,69.1,33.7,30.07,SE,146,6.0,8.0,27,0.00,,,0.00,0,Wunderground v.1.15,2013-04-06 19:14:00,
2013-04-06 15:20:00,69.5,34.0,30.07,SSE,164,1.0,4.0,27,0.00,,,0.00,0,Wunderground v.1.15,2013-04-06 19:20:00,
2013-04-06 15:25:00,70.1,33.6,30.06,SSE,163,1.0,8.0,26,0.00,,,0.00,0,Wunderground v.1.15,2013-04-06 19:25:00,
2013-04-06 15:31:00,70.7,33.1,30.06,SSE,162,3.0,5.0,25,0.00,,,0.00,0,Wunderground v.1.15,2013-04-06 19:31:00,
2013-04-06 15:37:00,70.9,32.3,30.05,SSE,162,1.0,5.0,24,0.00,,,0.00,0,Wunderground v.1.15,2013-04-06 19:37:00,
2013-04-06 15:42:00,71.0,31.3,30.05,SE,136,0.0,4.0,23,0.00,,,0.00,0,Wunderground v.1.15,2013-04-06 19:42:00,
2013-04-06 15:47:00,71.7,34.0,30.05,SSE,155,1.0,7.0,25,0.00,,,0.00,0,Wunderground v.1.15,2013-04-06 19:47:00,
2013-04-06 15:52:00,72.1,33.3,30.05,SE,146,1.0,4.0,24,0.00,,,0.00,0,Wunderground v.1.15,2013-04-06 19:52:00,
2013-04-06 15:57:00,71.8,33.0,30.04,SE,145,0.0,4.0,24,0.00,,,0.00,0,Wunderground v.1.15,2013-04-06 19:57:00,
2013-04-06 16:03:00,71.6,30.7,30.04,WNW,287,3.0,4.0,22,0.00,,,0.00,0,Wunderground v.1.15,2013-04-06 20:03:00,
2013-04-06 16:08:00,70.7,31.1,30.03,WNW,299,0.0,4.0,23,0.00,,,0.00,0,Wunderground v.1.15,2013-04-06 20:08:00,
2013-04-06 16:14:00,70.8,32.2,30.03,ENE,57,1.0,4.0,24,0.00,,,0.00,0,Wunderground v.1.15,2013-04-06 20:14:00,
2013-04-06 16:19:00,70.6,31.0,30.03,ENE,58,2.0,2.0,23,0.00,,,0.00,0,Wunderground v.1.15,2013-04-06 20:19:00,
2013-04-06 16:24:00,70.2,29.5,30.03,ENE,58,0.0,2.0,22,0.00,,,0.00,0,Wunderground v.1.15,2013-04-06 20:24:00,
2013-04-06 16:29:00,70.1,29.5,30.03,ENE,58,1.0,2.0,22,0.00,,,0.00,0,Wunderground v.1.15,2013-04-06 20:29:00,
2013-04-06 16:35:00,69.9,31.4,30.02,WNW,301,1.0,3.0,24,0.00,,,0.00,0,Wunderground v.1.15,2013-04-06 20:35:00,
2013-04-06 16:40:00,69.8,28.1,30.02,NNW,334,3.0,5.0,21,0.00,,,0.00,0,Wunderground v.1.15,2013-04-06 20:40:00,
2013-04-06 16:45:00,69.9,30.4,30.02,NW,315,3.0,5.0,23,0.00,,,0.00,0,Wunderground v.1.15,2013-04-06 20:45:00,
2013-04-06 16:50:00,70.4,31.9,30.02,NW,308,3.0,3.0,24,0.00,,,0.00,0,Wunderground v.1.15,2013-04-06 20:50:00,
2013-04-06 16:55:00,70.7,32.1,30.02,NW,306,1.0,3.0,24,0.00,,,0.00,0,Wunderground v.1.15,2013-04-06 20:55:00,
2013-04-06 17:02:00,70.3,29.6,30.02,NW,306,1.0,2.0,22,0.00,,,0.00,0,Wunderground v.1.15,2013-04-06 21:02:00,
2013-04-06 17:07:00,69.8,30.3,30.01,NNW,335,2.0,3.0,23,0.00,,,0.00,0,Wunderground v.1.15,2013-04-06 21:07:00,
2013-04-06 17:12:00,69.8,31.4,30.02,North,350,1.0,3.0,24,0.00,,,0.00,0,Wunderground v.1.15,2013-04-06 21:12:00,
2013-04-06 17:17:00,70.3,29.6,30.01,North,0,0.0,3.0,22,0.00,,,0.00,0,Wunderground v.1.15,2013-04-06 21:17:00,
2013-04-06 17:22:00,70.5,28.7,30.01,NW,320,2.0,3.0,21,0.00,,,0.00,0,Wunderground v.1.15,2013-04-06 21:22:00,
2013-04-06 17:27:00,70.9,31.2,30.01,NW,320,2.0,3.0,23,0.00,,,0.00,0,Wunderground v.1.15,2013-04-06 21:27:00,
2013-04-06 17:32:00,71.0,32.4,30.01,NW,321,1.0,3.0,24,0.00,,,0.00,0,Wunderground v.1.15,2013-04-06 21:32:00,
2013-04-06 17:37:00,71.0,32.4,30.00,NW,320,2.0,3.0,24,0.00,,,0.00,0,Wunderground v.1.15,2013-04-06 21:37:00,
2013-04-06 17:42:00,70.9,29.0,30.01,NW,320,2.0,3.0,21,0.00,,,0.00,0,Wunderground v.1.15,2013-04-06 21:42:00,
2013-04-06 17:48:00,70.7,30.0,30.01,NW,320,1.0,3.0,22,0.00,,,0.00,0,Wunderground v.1.15,2013-04-06 21:48:00,
2013-04-06 17:53:00,70.6,28.7,30.01,NW,320,2.0,2.0,21,0.00,,,0.00,0,Wunderground v.1.15,2013-04-06 21:53:00,
2013-04-06 17:58:00,70.4,31.9,30.00,NW,320,1.0,2.0,24,0.00,,,0.00,0,Wunderground v.1.15,2013-04-06 21:58:00,
2013-04-06 18:03:00,70.6,32.0,30.01,NW,320,1.0,2.0,24,0.00,,,0.00,0,Wunderground v.1.15,2013-04-06 22:03:00,
2013-04-06 18:08:00,70.6,32.0,30.01,NW,320,1.0,2.0,24,0.00,,,0.00,0,Wunderground v.1.15,2013-04-06 22:08:00,
2013-04-06 18:13:00,70.3,29.6,30.01,NW,320,0.0,1.0,22,0.00,,,0.00,0,Wunderground v.1.15,2013-04-06 22:13:00,
2013-04-06 18:18:00,70.3,29.6,30.01,NW,319,2.0,2.0,22,0.00,,,0.00,0,Wunderground v.1.15,2013-04-06 22:18:00,
2013-04-06 18:23:00,69.9,31.4,30.00,NW,319,0.0,1.0,24,0.00,,,0.00,0,Wunderground v.1.15,2013-04-06 22:23:00,
2013-04-06 18:28:00,69.6,30.1,30.00,NW,319,0.0,1.0,23,0.00,,,0.00,0,Wunderground v.1.15,2013-04-06 22:28:00,
2013-04-06 18:34:00,69.2,29.8,30.00,NW,319,0.0,2.0,23,0.00,,,0.00,0,Wunderground v.1.15,2013-04-06 22:34:00,
2013-04-06 18:39:00,69.1,30.8,30.00,NW,319,0.0,0.0,24,0.00,,,0.00,0,Wunderground v.1.15,2013-04-06 22:39:00,
2013-04-06 18:44:00,68.8,32.5,30.00,NW,319,1.0,2.0,26,0.00,,,0.00,0,Wunderground v.1.15,2013-04-06 22:44:00,
2013-04-06 18:50:00,68.5,30.3,30.00,NW,319,0.0,0.0,24,0.00,,,0.00,0,Wunderground v.1.15,2013-04-06 22:50:00,
2013-04-06 18:55:00,68.5,31.3,29.99,East,87,0.0,3.0,25,0.00,,,0.00,0,Wunderground v.1.15,2013-04-06 22:55:00,
2013-04-06 19:01:00,68.2,30.0,29.99,East,87,0.0,0.0,24,0.00,,,0.00,0,Wunderground v.1.15,2013-04-06 23:01:00,
2013-04-06 19:07:00,67.9,29.7,29.99,East,87,0.0,1.0,24,0.00,,,0.00,0,Wunderground v.1.15,2013-04-06 23:07:00,
2013-04-06 19:12:00,67.6,30.5,29.99,East,87,0.0,1.0,25,0.00,,,0.00,0,Wunderground v.1.15,2013-04-06 23:12:00,
2013-04-06 19:17:00,67.3,30.2,29.99,East,87,0.0,1.0,25,0.00,,,0.00,0,Wunderground v.1.15,2013-04-06 23:17:00,
2013-04-06 19:22:00,67.0,31.0,29.99,East,87,0.0,1.0,26,0.00,,,0.00,0,Wunderground v.1.15,2013-04-06 23:22:00,
2013-04-06 19:27:00,66.7,29.7,29.99,East,87,0.0,1.0,25,0.00,,,0.00,0,Wunderground v.1.15,2013-04-06 23:27:00,
2013-04-06 19:33:00,66.2,30.3,29.99,East,87,0.0,0.0,26,0.00,,,0.00,0,Wunderground v.1.15,2013-04-06 23:33:00,
2013-04-06 19:38:00,65.7,30.8,29.99,East,87,0.0,0.0,27,0.00,,,0.00,0,Wunderground v.1.15,2013-04-06 23:38:00,
2013-04-06 19:43:00,65.2,30.3,29.98,East,87,0.0,0.0,27,0.00,,,0.00,0,Wunderground v.1.15,2013-04-06 23:43:00,
2013-04-06 19:49:00,64.8,34.2,29.98,East,87,0.0,0.0,32,0.00,,,0.00,0,Wunderground v.1.15,2013-04-06 23:49:00,
2013-04-06 19:54:00,64.2,34.5,29.98,East,87,0.0,0.0,33,0.00,,,0.00,0,Wunderground v.1.15,2013-04-06 23:54:00,
2013-04-06 19:59:00,63.5,31.5,29.98,East,87,0.0,0.0,30,0.00,,,0.00,0,Wunderground v.1.15,2013-04-06 23:59:00,
2013-04-06 20:05:00,63.1,33.5,29.98,East,86,0.0,0.0,33,0.00,,,0.00,0,Wunderground v.1.15,2013-04-07 00:05:00,
2013-04-06 20:10:00,62.7,35.3,29.98,East,86,0.0,1.0,36,0.00,,,0.00,0,Wunderground v.1.15,2013-04-07 00:10:00,
2013-04-06 20:16:00,62.3,35.7,29.98,East,82,0.0,1.0,37,0.00,,,0.00,0,Wunderground v.1.15,2013-04-07 00:16:00,
2013-04-06 20:21:00,61.7,35.8,29.98,ENE,78,0.0,0.0,38,0.00,,,0.00,0,Wunderground v.1.15,2013-04-07 00:21:00,
2013-04-06 20:26:00,61.3,36.1,29.98,East,79,0.0,1.0,39,0.00,,,0.00,0,Wunderground v.1.15,2013-04-07 00:26:00,
2013-04-06 20:31:00,60.8,36.3,29.97,East,81,0.0,0.0,40,0.00,,,0.00,0,Wunderground v.1.15,2013-04-07 00:31:00,
2013-04-06 20:37:00,60.5,36.0,29.97,East,80,0.0,1.0,40,0.00,,,0.00,0,Wunderground v.1.15,2013-04-07 00:37:00,
2013-04-06 20:41:00,60.1,35.7,29.98,East,79,0.0,0.0,40,0.00,,,0.00,0,Wunderground v.1.15,2013-04-07 00:41:00,
2013-04-06 20:47:00,59.8,35.4,29.97,East,80,0.0,0.0,40,0.00,,,0.00,0,Wunderground v.1.15,2013-04-07 00:47:00,
2013-04-06 20:52:00,59.6,36.5,29.97,East,80,0.0,0.0,42,0.00,,,0.00,0,Wunderground v.1.15,2013-04-07 00:52:00,
2013-04-06 20:57:00,59.4,36.9,29.97,East,86,0.0,0.0,43,0.00,,,0.00,0,Wunderground v.1.15,2013-04-07 00:57:00,
2013-04-06 21:03:00,59.1,36.6,29.97,East,86,0.0,0.0,43,0.00,,,0.00,0,Wunderground v.1.15,2013-04-07 01:03:00,
2013-04-06 21:08:00,59.0,37.1,29.97,East,86,0.0,0.0,44,0.00,,,0.00,0,Wunderground v.1.15,2013-04-07 01:08:00,
2013-04-06 21:13:00,58.8,36.3,29.97,East,86,0.0,0.0,43,0.00,,,0.00,0,Wunderground v.1.15,2013-04-07 01:13:00,
2013-04-06 21:18:00,58.6,36.2,29.97,East,86,1.0,2.0,43,0.00,,,0.00,0,Wunderground v.1.15,2013-04-07 01:18:00,
2013-04-06 21:23:00,58.5,36.1,29.97,East,84,0.0,2.0,43,0.00,,,0.00,0,Wunderground v.1.15,2013-04-07 01:23:00,
2013-04-06 21:29:00,58.4,36.0,29.96,East,84,0.0,2.0,43,0.00,,,0.00,0,Wunderground v.1.15,2013-04-07 01:29:00,
2013-04-06 21:35:00,58.2,36.4,29.96,East,84,1.0,2.0,44,0.00,,,0.00,0,Wunderground v.1.15,2013-04-07 01:35:00,
2013-04-06 21:41:00,57.9,36.1,29.96,East,84,0.0,0.0,44,0.00,,,0.00,0,Wunderground v.1.15,2013-04-07 01:41:00,
2013-04-06 21:46:00,57.6,36.4,29.96,East,83,0.0,0.0,45,0.00,,,0.00,0,Wunderground v.1.15,2013-04-07 01:46:00,
2013-04-06 21:52:00,57.2,37.1,29.96,ENE,76,0.0,0.0,47,0.00,,,0.00,0,Wunderground v.1.15,2013-04-07 01:52:00,
2013-04-06 21:57:00,56.8,36.8,29.96,ENE,77,0.0,0.0,47,0.00,,,0.00,0,Wunderground v.1.15,2013-04-07 01:57:00,
2013-04-06 22:03:00,56.5,37.0,29.96,ENE,77,0.0,0.0,48,0.00,,,0.00,0,Wunderground v.1.15,2013-04-07 02:03:00,
2013-04-06 22:08:00,56.2,36.8,29.96,ENE,77,0.0,1.0,48,0.00,,,0.00,0,Wunderground v.1.15,2013-04-07 02:08:00,
2013-04-06 22:13:00,56.0,36.6,29.96,ENE,76,0.0,0.0,48,0.00,,,0.00,0,Wunderground v.1.15,2013-04-07 02:13:00,
2013-04-06 22:18:00,55.7,37.3,29.96,ENE,77,0.0,0.0,50,0.00,,,0.00,0,Wunderground v.1.15,2013-04-07 02:18:00,
2013-04-06 22:23:00,55.5,36.6,29.96,ENE,77,0.0,0.0,49,0.00,,,0.00,0,Wunderground v.1.15,2013-04-07 02:23:00,
2013-04-06 22:28:00,55.5,37.1,29.96,ENE,77,0.0,0.0,50,0.00,,,0.00,0,Wunderground v.1.15,2013-04-07 02:28:00,
2013-04-06 22:33:00,55.4,37.1,29.96,ENE,77,0.0,0.0,50,0.00,,,0.00,0,Wunderground v.1.15,2013-04-07 02:33:00,
2013-04-06 22:39:00,55.3,38.0,29.96,ENE,77,0.0,0.0,52,0.00,,,0.00,0,Wunderground v.1.15,2013-04-07 02:39:00,
2013-04-06 22:44:00,55.2,37.9,29.97,ENE,76,0.0,0.0,52,0.00,,,0.00,0,Wunderground v.1.15,2013-04-07 02:44:00,
2013-04-06 22:50:00,55.0,37.7,29.97,ENE,76,0.0,0.0,52,0.00,,,0.00,0,Wunderground v.1.15,2013-04-07 02:50:00,
2013-04-06 22:55:00,54.9,38.1,29.97,ENE,76,0.0,1.0,53,0.00,,,0.00,0,Wunderground v.1.15,2013-04-07 02:55:00,
2013-04-06 23:00:00,54.9,38.6,29.97,ENE,76,0.0,0.0,54,0.00,,,0.00,0,Wunderground v.1.15,2013-04-07 03:00:00,
2013-04-06 23:05:00,54.7,38.8,29.97,ENE,76,1.0,2.0,55,0.00,,,0.00,0,Wunderground v.1.15,2013-04-07 03:05:00,
2013-04-06 23:10:00,54.6,38.7,29.97,ENE,75,0.0,0.0,55,0.00,,,0.00,0,Wunderground v.1.15,2013-04-07 03:10:00,
2013-04-06 23:15:00,54.5,38.7,29.97,ENE,76,1.0,1.0,55,0.00,,,0.00,0,Wunderground v.1.15,2013-04-07 03:15:00,
2013-04-06 23:21:00,54.3,38.9,29.97,ENE,75,0.0,0.0,56,0.00,,,0.00,0,Wunderground v.1.15,2013-04-07 03:21:00,
2013-04-06 23:26:00,54.2,38.8,29.97,ENE,75,0.0,2.0,56,0.00,,,0.00,0,Wunderground v.1.15,2013-04-07 03:26:00,
2013-04-06 23:31:00,54.0,38.6,29.97,ENE,75,0.0,0.0,56,0.00,,,0.00,0,Wunderground v.1.15,2013-04-07 03:31:00,
2013-04-06 23:36:00,53.8,38.9,29.97,ENE,75,0.0,2.0,57,0.00,,,0.00,0,Wunderground v.1.15,2013-04-07 03:36:00,
2013-04-06 23:42:00,53.6,39.2,29.97,East,79,0.0,3.0,58,0.00,,,0.00,0,Wunderground v.1.15,2013-04-07 03:42:00,
2013-04-06 23:47:00,53.3,38.4,29.97,ENE,77,0.0,3.0,57,0.00,,,0.00,0,Wunderground v.1.15,2013-04-07 03:47:00,
2013-04-06 23:52:00,53.1,39.1,29.97,East,84,0.0,0.0,59,0.00,,,0.00,0,Wunderground v.1.15,2013-04-07 03:52:00,
2013-04-06 23:57:00,52.9,38.5,29.98,East,84,0.0,0.0,58,0.00,,,0.00,0,Wunderground v.1.15,2013-04-07 03:57:00,